createdAt,value
2022-09-09T00:02:12.782Z,66.47
2022-09-09T00:04:43.663Z,66.72
2022-09-09T00:07:22.116Z,66.73
2022-09-09T00:09:59.939Z,66.73
2022-09-09T00:12:37.097Z,66.71
2022-09-09T00:15:13.849Z,66.71
2022-09-09T00:17:49.872Z,66.61
2022-09-09T00:20:27.582Z,66.64
2022-09-09T00:23:02.567Z,66.65
2022-09-09T00:25:37.902Z,66.70
2022-09-09T00:28:18.293Z,66.41
2022-09-09T00:30:49.794Z,66.43
2022-09-09T00:33:23.263Z,66.30
2022-09-09T00:35:55.350Z,66.29
2022-09-09T00:38:29.035Z,66.27
2022-09-09T00:41:05.731Z,66.17
2022-09-09T00:43:37.287Z,66.17
2022-09-09T00:46:48.008Z,66.14
2022-09-09T00:49:27.136Z,65.86
2022-09-09T00:52:10.399Z,65.90
2022-09-09T00:54:47.754Z,65.91
2022-09-09T00:57:25.667Z,65.81
2022-09-09T00:59:59.992Z,65.95
2022-09-09T01:02:33.528Z,65.99
2022-09-09T01:05:09.422Z,66.16
2022-09-09T01:07:39.306Z,66.36
2022-09-09T01:10:18.582Z,66.40
2022-09-09T01:12:49.475Z,66.60
2022-09-09T01:15:27.090Z,66.44
2022-09-09T01:18:02.733Z,66.60
2022-09-09T01:20:42.828Z,66.77
2022-09-09T01:23:28.044Z,67.06
2022-09-09T01:26:29.168Z,67.52
2022-09-09T01:29:00.599Z,67.62
2022-09-09T01:31:42.152Z,67.78
2022-09-09T01:34:14.161Z,68.28
2022-09-09T01:36:46.319Z,68.46
2022-09-09T01:39:15.743Z,68.57
2022-09-09T01:41:46.951Z,68.72
2022-09-09T01:44:19.823Z,68.96
2022-09-09T01:46:48.352Z,69.07
2022-09-09T01:49:21.219Z,69.15
2022-09-09T01:51:53.137Z,68.76
2022-09-09T01:54:30.246Z,68.62
2022-09-09T01:57:11.688Z,68.78
2022-09-09T01:59:54.431Z,68.34
2022-09-09T02:02:28.990Z,68.00
2022-09-09T02:05:19.646Z,67.77
2022-09-09T02:07:50.470Z,67.66
2022-09-09T02:10:35.518Z,67.44
2022-09-09T02:13:21.804Z,67.54
2022-09-09T02:15:56.294Z,67.17
2022-09-09T02:18:29.420Z,67.34
2022-09-09T02:21:01.084Z,67.37
2022-09-09T02:23:31.419Z,67.46
2022-09-09T02:26:02.286Z,68.02
2022-09-09T02:28:36.452Z,68.18
2022-09-09T02:31:05.068Z,68.58
2022-09-09T02:33:45.288Z,68.09
2022-09-09T02:36:17.624Z,67.79
2022-09-09T02:38:51.638Z,67.63
2022-09-09T02:41:28.457Z,67.61
2022-09-09T02:43:59.964Z,67.63
2022-09-09T02:46:44.729Z,67.57
2022-09-09T02:49:20.626Z,67.53
2022-09-09T02:51:59.305Z,67.48
2022-09-09T02:54:32.128Z,68.02
2022-09-09T02:57:10.788Z,68.23
2022-09-09T02:59:42.753Z,67.98
2022-09-09T03:02:12.667Z,67.72
2022-09-09T03:04:45.310Z,67.80
2022-09-09T03:07:17.352Z,67.94
2022-09-09T03:09:47.058Z,68.21
2022-09-09T03:12:16.343Z,67.99
2022-09-09T03:14:46.934Z,68.08
2022-09-09T03:17:16.608Z,67.95
2022-09-09T03:19:55.783Z,67.95
2022-09-09T03:22:24.642Z,68.16
2022-09-09T03:24:53.798Z,68.44
2022-09-09T03:27:22.764Z,68.72
2022-09-09T03:29:53.075Z,68.91
2022-09-09T03:32:27.425Z,68.87
2022-09-09T03:34:58.535Z,68.73
2022-09-09T03:37:28.291Z,68.74
2022-09-09T03:39:57.134Z,68.70
2022-09-09T03:42:26.039Z,68.93
2022-09-09T03:44:59.282Z,69.21
2022-09-09T03:47:28.484Z,69.06
2022-09-09T03:50:07.417Z,68.84
2022-09-09T03:52:36.797Z,68.80
2022-09-09T03:55:07.611Z,68.64
2022-09-09T03:57:37.552Z,69.02
2022-09-09T04:00:13.068Z,68.66
2022-09-09T04:02:55.543Z,68.67
2022-09-09T04:05:24.811Z,68.31
2022-09-09T04:07:53.376Z,68.02
2022-09-09T04:10:23.431Z,68.05
2022-09-09T04:12:52.272Z,67.78
2022-09-09T04:15:22.211Z,67.75
2022-09-09T04:17:50.838Z,67.51
2022-09-09T04:20:20.820Z,67.73
2022-09-09T04:22:49.208Z,67.80
2022-09-09T04:25:17.907Z,67.94
2022-09-09T04:27:46.808Z,67.94
2022-09-09T04:30:15.173Z,67.82
2022-09-09T04:32:46.050Z,67.63
2022-09-09T04:35:14.635Z,67.53
2022-09-09T04:37:43.304Z,67.53
2022-09-09T04:40:12.274Z,67.54
2022-09-09T04:42:44.958Z,67.49
2022-09-09T04:45:16.299Z,67.68
2022-09-09T04:47:46.403Z,67.71
2022-09-09T04:50:16.104Z,67.48
2022-09-09T04:52:48.501Z,67.91
2022-09-09T04:55:17.413Z,68.33
2022-09-09T04:57:46.840Z,68.21
2022-09-09T05:00:18.480Z,68.59
2022-09-09T05:02:48.960Z,69.09
2022-09-09T05:05:17.865Z,69.16
2022-09-09T05:07:47.262Z,69.35
2022-09-09T05:10:17.494Z,69.49
2022-09-09T05:12:54.968Z,69.10
2022-09-09T05:15:26.071Z,69.05
2022-09-09T05:18:00.416Z,68.91
2022-09-09T05:20:30.142Z,68.93
2022-09-09T05:22:59.249Z,68.80
2022-09-09T05:25:30.660Z,68.71
2022-09-09T05:28:00.968Z,68.47
2022-09-09T05:30:29.745Z,68.15
2022-09-09T05:33:00.346Z,68.10
2022-09-09T05:35:31.426Z,67.95
2022-09-09T05:38:01.679Z,67.96
2022-09-09T05:40:31.770Z,68.03
2022-09-09T05:43:02.900Z,68.17
2022-09-09T05:45:32.099Z,67.98
2022-09-09T05:48:02.885Z,68.28
2022-09-09T05:50:32.986Z,68.38
2022-09-09T05:53:01.294Z,68.21
2022-09-09T05:55:31.906Z,68.43
2022-09-09T05:58:00.883Z,68.24
2022-09-09T06:00:30.609Z,68.31
2022-09-09T06:03:00.309Z,68.21
2022-09-09T06:05:31.604Z,68.02
2022-09-09T06:08:01.455Z,68.23
2022-09-09T06:10:29.787Z,68.81
2022-09-09T06:12:58.350Z,68.58
2022-09-09T06:15:28.051Z,68.53
2022-09-09T06:17:57.404Z,68.65
2022-09-09T06:20:25.780Z,68.83
2022-09-09T06:22:55.379Z,69.00
2022-09-09T06:25:25.528Z,69.66
2022-09-09T06:27:53.836Z,70.07
2022-09-09T06:30:22.403Z,70.13
2022-09-09T06:32:50.958Z,70.21
2022-09-09T06:35:19.714Z,70.25
2022-09-09T06:37:50.180Z,70.25
2022-09-09T06:40:21.871Z,70.38
2022-09-09T06:42:51.261Z,70.54
2022-09-09T06:45:37.575Z,70.61
2022-09-09T06:48:06.373Z,70.28
2022-09-09T06:50:34.761Z,70.60
2022-09-09T06:53:03.982Z,70.71
2022-09-09T06:55:35.084Z,70.59
2022-09-09T06:58:03.692Z,70.74
2022-09-09T07:00:32.528Z,70.88
2022-09-09T07:03:01.451Z,70.81
2022-09-09T07:05:30.566Z,70.78
2022-09-09T07:07:59.312Z,70.84
2022-09-09T07:10:28.874Z,70.66
2022-09-09T07:12:59.272Z,70.83
2022-09-09T07:15:28.088Z,70.80
2022-09-09T07:17:57.443Z,70.82
2022-09-09T07:20:27.482Z,70.93
2022-09-09T07:22:57.035Z,70.77
2022-09-09T07:25:26.071Z,70.70
2022-09-09T07:27:54.400Z,70.85
2022-09-09T07:30:27.717Z,70.84
2022-09-09T07:32:58.277Z,70.82
2022-09-09T07:35:28.003Z,71.00
2022-09-09T07:37:57.508Z,70.95
2022-09-09T07:40:26.121Z,70.89
2022-09-09T07:42:55.690Z,70.99
2022-09-09T07:45:25.803Z,71.22
2022-09-09T07:47:55.049Z,71.36
2022-09-09T07:50:24.554Z,71.50
2022-09-09T07:52:54.612Z,71.58
2022-09-09T07:55:27.099Z,71.78
2022-09-09T07:57:57.586Z,71.78
2022-09-09T08:00:29.206Z,71.61
2022-09-09T08:03:03.105Z,71.54
2022-09-09T08:05:31.957Z,71.19
2022-09-09T08:08:01.826Z,71.41
2022-09-09T08:10:30.622Z,71.42
2022-09-09T08:13:17.304Z,71.44
2022-09-09T08:15:50.139Z,71.51
2022-09-09T08:18:19.756Z,71.51
2022-09-09T08:20:49.490Z,71.50
2022-09-09T08:23:18.088Z,71.33
2022-09-09T08:25:46.670Z,71.13
2022-09-09T08:28:16.593Z,70.94
2022-09-09T08:30:45.003Z,71.01
2022-09-09T08:33:15.054Z,70.97
2022-09-09T08:35:53.163Z,70.87
2022-09-09T08:38:22.595Z,70.91
2022-09-09T08:40:55.004Z,70.97
2022-09-09T08:43:25.920Z,70.70
2022-09-09T08:46:05.088Z,70.83
2022-09-09T08:48:50.070Z,70.73
2022-09-09T08:51:18.871Z,70.76
2022-09-09T08:53:51.430Z,70.90
2022-09-09T08:56:24.987Z,70.79
2022-09-09T08:58:58.887Z,70.70
2022-09-09T09:01:52.349Z,70.71
2022-09-09T09:04:44.936Z,70.62
2022-09-09T09:07:32.564Z,70.35
2022-09-09T09:10:24.266Z,70.46
2022-09-09T09:13:03.198Z,70.52
2022-09-09T09:15:38.308Z,70.64
2022-09-09T09:18:13.534Z,70.71
2022-09-09T09:20:53.180Z,70.83
2022-09-09T09:23:24.830Z,71.10
2022-09-09T09:26:01.752Z,70.91
2022-09-09T09:28:34.168Z,71.23
2022-09-09T09:31:15.224Z,71.41
2022-09-09T09:33:51.238Z,71.44
2022-09-09T09:36:27.707Z,71.73
2022-09-09T09:41:48.532Z,72.17
2022-09-09T09:44:27.184Z,72.21
2022-09-09T09:47:09.247Z,72.66
2022-09-09T09:49:38.497Z,73.26
2022-09-09T09:52:09.615Z,73.29
2022-09-09T09:54:41.472Z,73.58
2022-09-09T09:57:13.412Z,73.57
2022-09-09T09:59:44.718Z,73.66
2022-09-09T10:02:24.256Z,73.40
2022-09-09T10:05:06.719Z,73.60
2022-09-09T10:07:39.881Z,74.00
2022-09-09T10:10:16.482Z,73.61
2022-09-09T10:12:58.199Z,73.94
2022-09-09T10:15:42.507Z,74.21
2022-09-09T10:18:49.497Z,74.45
2022-09-09T10:21:33.087Z,74.79
2022-09-09T10:24:29.354Z,75.11
2022-09-09T10:27:04.526Z,74.73
2022-09-09T10:29:45.073Z,74.70
2022-09-09T10:32:38.491Z,74.73
2022-09-09T10:35:14.166Z,74.78
2022-09-09T10:38:07.404Z,74.47
2022-09-09T10:40:45.462Z,74.68
2022-09-09T10:43:31.500Z,74.81
2022-09-09T10:46:10.435Z,74.52
2022-09-09T10:48:56.176Z,74.12
2022-09-09T10:51:38.699Z,73.86
2022-09-09T10:54:30.153Z,73.31
2022-09-09T10:57:05.682Z,73.25
2022-09-09T10:59:39.369Z,73.22
2022-09-09T11:02:18.783Z,73.06
2022-09-09T11:04:53.619Z,72.66
2022-09-09T11:07:30.299Z,72.69
2022-09-09T11:10:07.373Z,72.48
2022-09-09T11:12:41.450Z,71.75
2022-09-09T11:15:19.122Z,71.89
2022-09-09T11:17:51.855Z,71.28
2022-09-09T11:20:20.242Z,70.90
2022-09-09T11:22:53.244Z,70.21
2022-09-09T11:25:27.855Z,69.39
2022-09-09T11:28:17.307Z,69.03
2022-09-09T11:31:00.523Z,68.51
2022-09-09T11:34:00.230Z,68.36
2022-09-09T11:36:49.308Z,67.82
2022-09-09T11:39:40.710Z,67.95
2022-09-09T11:42:10.880Z,67.10
2022-09-09T11:44:41.069Z,67.12
2022-09-09T11:47:23.080Z,66.70
2022-09-09T11:49:51.404Z,66.57
2022-09-09T11:52:26.687Z,65.82
2022-09-09T11:54:57.374Z,65.15
2022-09-09T11:57:33.063Z,65.27
2022-09-09T12:00:03.640Z,63.78
2022-09-09T12:02:52.163Z,62.41
2022-09-09T12:05:23.039Z,61.14
2022-09-09T12:07:56.892Z,61.00
2022-09-09T12:10:29.854Z,60.36
2022-09-09T12:13:10.222Z,60.21
2022-09-09T12:15:51.203Z,59.78
2022-09-09T12:18:26.362Z,59.98
2022-09-09T12:21:02.812Z,59.85
2022-09-09T12:23:43.831Z,59.60
2022-09-09T12:26:26.493Z,59.14
2022-09-09T12:29:04.343Z,59.39
2022-09-09T12:31:45.113Z,59.71
2022-09-09T12:34:19.390Z,59.20
2022-09-09T12:36:55.851Z,58.71
2022-09-09T12:39:32.495Z,58.74
2022-09-09T12:42:01.299Z,57.71
2022-09-09T12:44:30.111Z,57.58
2022-09-09T12:47:03.639Z,56.08
2022-09-09T12:49:35.845Z,55.05
2022-09-09T12:52:06.882Z,53.63
2022-09-09T12:54:38.039Z,53.16
2022-09-09T12:57:07.080Z,52.08
2022-09-09T12:59:41.327Z,51.99
2022-09-09T13:02:21.394Z,51.52
2022-09-09T13:04:51.571Z,51.40
2022-09-09T13:07:20.939Z,51.32
2022-09-09T13:09:51.266Z,50.21
2022-09-09T13:12:22.194Z,49.48
2022-09-09T13:14:52.998Z,49.17
2022-09-09T13:17:26.695Z,49.09
2022-09-09T13:19:56.996Z,48.79
2022-09-09T13:22:34.352Z,47.56
2022-09-09T13:25:19.595Z,47.46
2022-09-09T13:27:56.877Z,47.06
2022-09-09T13:30:27.858Z,46.10
2022-09-09T13:33:24.474Z,46.10
2022-09-09T13:35:56.764Z,46.76
2022-09-09T13:38:27.742Z,47.28
2022-09-09T13:40:58.988Z,47.49
2022-09-09T13:43:28.782Z,48.30
2022-09-09T13:46:00.289Z,48.79
2022-09-09T13:48:31.000Z,49.01
2022-09-09T13:51:02.905Z,49.46
2022-09-09T13:53:31.889Z,49.80
2022-09-09T13:56:02.754Z,49.95
2022-09-09T13:58:31.031Z,49.74
2022-09-09T14:00:59.774Z,49.85
2022-09-09T14:03:28.214Z,49.84
2022-09-09T14:05:58.858Z,49.75
2022-09-09T14:08:38.531Z,50.12
2022-09-09T14:11:07.040Z,50.39
2022-09-09T14:13:36.130Z,50.26
2022-09-09T14:16:04.457Z,49.04
2022-09-09T14:18:33.556Z,48.64
2022-09-09T14:21:04.096Z,47.66
2022-09-09T14:23:33.756Z,47.45
2022-09-09T14:26:02.519Z,47.30
2022-09-09T14:31:20.392Z,47.25
2022-09-09T14:33:48.818Z,47.19
2022-09-09T14:36:19.031Z,47.03
2022-09-09T14:38:47.544Z,46.63
2022-09-09T14:41:19.301Z,46.58
2022-09-09T14:43:48.578Z,46.44
2022-09-09T14:46:19.033Z,46.82
2022-09-09T14:48:49.777Z,47.32
2022-09-09T14:51:23.624Z,48.09
2022-09-09T14:53:54.915Z,48.55
2022-09-09T14:56:26.443Z,49.23
2022-09-09T14:58:56.801Z,49.62
2022-09-09T15:01:28.259Z,50.15
2022-09-09T15:03:59.451Z,50.16
2022-09-09T15:06:31.068Z,51.07
2022-09-09T15:09:00.318Z,51.05
2022-09-09T15:11:31.756Z,51.83
2022-09-09T15:14:00.290Z,52.20
2022-09-09T15:16:30.239Z,52.46
2022-09-09T15:19:01.307Z,52.96
2022-09-09T15:21:33.807Z,53.15
2022-09-09T15:24:02.390Z,53.60
2022-09-09T15:26:31.239Z,53.50
2022-09-09T15:29:01.036Z,54.16
2022-09-09T15:31:32.819Z,54.08
2022-09-09T15:34:04.105Z,54.59
2022-09-09T15:36:35.933Z,54.91
2022-09-09T15:39:06.167Z,55.46
2022-09-09T15:41:36.026Z,56.00
2022-09-09T15:44:04.635Z,56.71
2022-09-09T15:46:37.485Z,57.27
2022-09-09T15:49:07.698Z,57.82
2022-09-09T15:51:44.255Z,57.85
2022-09-09T15:54:15.065Z,57.98
2022-09-09T15:56:44.427Z,58.45
2022-09-09T15:59:13.108Z,58.76
2022-09-09T16:01:43.533Z,59.26
2022-09-09T16:04:12.617Z,59.17
2022-09-09T16:06:43.028Z,59.51
2022-09-09T16:09:12.032Z,59.91
2022-09-09T16:11:41.436Z,60.36
2022-09-09T16:14:10.027Z,60.04
2022-09-09T16:16:39.353Z,60.62
2022-09-09T16:19:10.731Z,60.38
2022-09-09T16:21:43.019Z,61.20
2022-09-09T16:24:13.768Z,61.31
2022-09-09T16:26:46.112Z,61.49
2022-09-09T16:29:15.546Z,61.83
2022-09-09T16:31:44.295Z,61.88
2022-09-09T16:34:13.040Z,62.20
2022-09-09T16:36:44.174Z,62.31
2022-09-09T16:39:14.249Z,61.57
2022-09-09T16:41:45.175Z,61.38
2022-09-09T16:44:16.149Z,60.91
2022-09-09T16:46:45.396Z,61.44
2022-09-09T16:49:16.275Z,61.60
2022-09-09T16:51:48.426Z,61.87
2022-09-09T16:54:18.194Z,61.85
2022-09-09T16:56:48.672Z,62.25
2022-09-09T16:59:19.037Z,62.21
2022-09-09T17:01:49.509Z,62.70
2022-09-09T17:04:22.005Z,62.69
2022-09-09T17:06:54.449Z,62.81
2022-09-09T17:09:24.519Z,63.20
2022-09-09T17:11:54.534Z,63.33
2022-09-09T17:14:24.797Z,63.40
2022-09-09T17:16:53.791Z,63.72
2022-09-09T17:19:22.130Z,63.60
2022-09-09T17:24:41.484Z,64.21
2022-09-09T17:27:10.057Z,64.20
2022-09-09T17:29:38.865Z,63.83
2022-09-09T17:32:08.729Z,63.98
2022-09-09T17:34:37.519Z,63.93
2022-09-09T17:37:08.406Z,64.11
2022-09-09T17:39:37.035Z,64.34
2022-09-09T17:42:05.511Z,64.47
2022-09-09T17:44:34.254Z,64.70
2022-09-09T17:47:05.302Z,64.88
2022-09-09T17:49:33.628Z,64.67
2022-09-09T17:52:02.774Z,65.04
2022-09-09T17:54:34.320Z,64.96
2022-09-09T17:57:02.718Z,64.72
2022-09-09T17:59:32.063Z,64.84
2022-09-09T18:02:00.602Z,64.67
2022-09-09T18:04:29.036Z,64.72
2022-09-09T18:06:57.655Z,64.12
2022-09-09T18:09:28.224Z,64.35
2022-09-09T18:12:00.121Z,64.45
2022-09-09T18:14:31.553Z,64.43
2022-09-09T18:17:00.835Z,64.32
2022-09-09T18:19:32.277Z,64.09
2022-09-09T18:22:02.815Z,64.65
2022-09-09T18:24:32.001Z,64.51
2022-09-09T18:27:02.292Z,64.64
2022-09-09T18:29:31.166Z,64.98
2022-09-09T18:32:00.424Z,65.18
2022-09-09T18:34:30.473Z,65.36
2022-09-09T18:36:58.820Z,65.12
2022-09-09T18:39:30.156Z,64.99
2022-09-09T18:42:01.079Z,65.22
2022-09-09T18:44:33.077Z,65.51
2022-09-09T18:47:02.855Z,65.23
2022-09-09T18:49:31.383Z,65.16
2022-09-09T18:52:00.409Z,65.18
2022-09-09T18:54:31.374Z,65.04
2022-09-09T18:57:01.283Z,65.13
2022-09-09T18:59:32.078Z,64.58
2022-09-09T19:02:00.614Z,64.65
2022-09-09T19:04:29.802Z,64.53
2022-09-09T19:06:58.772Z,64.83
2022-09-09T19:09:31.079Z,64.69
2022-09-09T19:12:00.767Z,65.03
2022-09-09T19:14:31.140Z,64.53
2022-09-09T19:17:00.442Z,64.92
2022-09-09T19:19:32.555Z,64.52
2022-09-09T19:22:02.169Z,64.62
2022-09-09T19:24:32.839Z,64.37
2022-09-09T19:27:03.207Z,64.91
2022-09-09T19:29:34.717Z,64.79
2022-09-09T19:34:53.030Z,65.47
2022-09-09T19:37:22.803Z,65.64
2022-09-09T19:39:51.783Z,65.81
2022-09-09T19:42:20.574Z,65.66
2022-09-09T19:44:50.851Z,65.97
2022-09-09T19:47:19.787Z,66.12
2022-09-09T19:49:48.193Z,66.17
2022-09-09T19:52:17.817Z,66.41
2022-09-09T19:54:46.731Z,66.33
2022-09-09T19:57:15.671Z,66.41
2022-09-09T19:59:44.795Z,66.19
2022-09-09T20:02:16.635Z,66.32
2022-09-09T20:04:45.101Z,66.40
2022-09-09T20:07:13.527Z,66.28
2022-09-09T20:09:42.194Z,65.95
2022-09-09T20:12:10.944Z,65.58
2022-09-09T20:14:40.259Z,65.11
2022-09-09T20:17:10.072Z,64.26
2022-09-09T20:19:40.511Z,64.19
2022-09-09T20:22:08.914Z,63.89
2022-09-09T20:24:38.007Z,63.75
2022-09-09T20:27:08.008Z,63.71
2022-09-09T20:29:37.483Z,64.10
2022-09-09T20:32:06.856Z,63.89
2022-09-09T20:34:35.395Z,63.92
2022-09-09T20:37:05.879Z,64.05
2022-09-09T20:39:36.412Z,63.85
2022-09-09T20:42:05.270Z,63.92
2022-09-09T20:44:33.625Z,63.99
2022-09-09T20:47:06.969Z,63.88
2022-09-09T20:49:36.189Z,64.03
2022-09-09T20:52:07.216Z,64.15
2022-09-09T20:54:37.922Z,64.38
2022-09-09T20:57:07.133Z,64.53
2022-09-09T20:59:36.128Z,64.53
2022-09-09T21:02:04.974Z,64.78
2022-09-09T21:04:33.754Z,65.30
2022-09-09T21:07:02.569Z,65.56
2022-09-09T21:09:32.563Z,65.72
2022-09-09T21:12:01.555Z,66.12
2022-09-09T21:14:29.841Z,66.29
2022-09-09T21:16:58.542Z,66.39
2022-09-09T21:19:26.858Z,66.10
2022-09-09T21:21:56.143Z,66.34
2022-09-09T21:24:24.423Z,66.15
2022-09-09T21:26:56.455Z,66.06
2022-09-09T21:29:25.064Z,65.72
2022-09-09T21:31:56.226Z,65.80
2022-09-09T21:34:24.709Z,65.80
2022-09-09T21:36:53.623Z,65.54
2022-09-09T21:39:22.660Z,65.59
2022-09-09T21:41:51.510Z,65.58
2022-09-09T21:44:21.366Z,65.50
2022-09-09T21:46:49.698Z,65.58
2022-09-09T21:49:17.976Z,66.15
2022-09-09T21:51:47.408Z,66.41
2022-09-09T21:54:15.739Z,66.81
2022-09-09T21:56:44.576Z,66.96
2022-09-09T21:59:12.912Z,66.91
2022-09-09T22:01:43.534Z,67.04
2022-09-09T22:04:12.175Z,67.22
2022-09-09T22:06:40.566Z,67.49
2022-09-09T22:09:09.943Z,67.32
2022-09-09T22:11:38.249Z,67.36
2022-09-09T22:14:07.458Z,67.73
2022-09-09T22:16:36.024Z,67.73
2022-09-09T22:19:07.681Z,67.66
2022-09-09T22:21:36.117Z,67.85
2022-09-09T22:24:06.905Z,67.97
2022-09-09T22:26:37.732Z,67.54
2022-09-09T22:29:07.620Z,67.30
2022-09-09T22:31:37.252Z,67.02
2022-09-09T22:34:08.401Z,67.14
2022-09-09T22:36:36.746Z,66.79
2022-09-09T22:39:05.971Z,67.02
2022-09-09T22:41:35.139Z,66.78
2022-09-09T22:44:04.094Z,67.00
2022-09-09T22:46:32.801Z,66.87
2022-09-09T22:49:03.887Z,67.04
2022-09-09T22:51:35.125Z,67.43
2022-09-09T22:54:03.808Z,67.65
2022-09-09T22:56:32.223Z,67.88
2022-09-09T22:59:01.583Z,67.98
2022-09-09T23:01:30.887Z,68.27
2022-09-09T23:04:03.015Z,68.55
2022-09-09T23:06:33.279Z,69.04
2022-09-09T23:09:03.978Z,69.16
2022-09-09T23:11:34.680Z,69.16
2022-09-09T23:14:06.515Z,69.35
2022-09-09T23:16:38.657Z,69.57
2022-09-09T23:19:10.814Z,69.71
2022-09-09T23:21:41.015Z,69.41
2022-09-09T23:24:12.859Z,69.61
2022-09-09T23:26:41.696Z,69.74
2022-09-09T23:29:15.140Z,69.65
2022-09-09T23:31:47.001Z,69.30
2022-09-09T23:34:16.341Z,68.89
2022-09-09T23:36:47.509Z,68.72
2022-09-09T23:39:16.254Z,68.51
2022-09-09T23:41:44.876Z,68.56
2022-09-09T23:44:14.226Z,68.66
2022-09-09T23:46:42.641Z,68.43
2022-09-09T23:49:11.729Z,68.19
2022-09-09T23:51:41.887Z,67.99
2022-09-09T23:54:12.042Z,67.97
2022-09-09T23:56:42.407Z,67.60
2022-09-09T23:59:11.850Z,68.00
